Time;durP1;ratioP1;P1;durP2;ratioP2;P2;SDS_P1;SDS_P2;PMS_P1;PMS_P2;Temp;Humidity;BMP_temperature;BMP_pressure;BME280_temperature;BME280_humidity;BME280_pressure;Samples;Min_cycle;Max_cycle;Signal;HPM_P1;HPM_P2
2023/04/23 00:01:11;;;;;;;10.15;8.93;;;13.90;99.90;;;;;;5112268;27;20287;-50
2023/04/23 00:03:41;;;;;;;10.50;8.93;;;13.90;99.90;;;;;;5111963;28;20245;-50
2023/04/23 00:06:11;;;;;;;11.23;9.40;;;13.90;99.90;;;;;;5112179;28;20231;-50
2023/04/23 00:08:41;;;;;;;11.38;10.13;;;13.90;99.90;;;;;;5111985;28;20619;-50
2023/04/23 00:11:10;;;;;;;12.23;9.40;;;13.90;99.90;;;;;;5112149;28;20235;-49
2023/04/23 00:13:38;;;;;;;10.55;9.13;;;13.80;99.90;;;;;;5088953;28;20288;-50
2023/04/23 00:16:09;;;;;;;10.50;8.68;;;13.80;99.90;;;;;;5089173;28;20224;-50
2023/04/23 00:18:37;;;;;;;10.77;9.68;;;13.80;99.90;;;;;;5091890;28;20296;-50
2023/04/23 00:21:07;;;;;;;12.57;9.85;;;13.80;99.90;;;;;;5091137;28;20212;-51
2023/04/23 00:23:35;;;;;;;13.40;9.32;;;13.80;99.90;;;;;;5091309;28;20212;-49
2023/04/23 00:26:05;;;;;;;11.75;9.55;;;13.80;99.90;;;;;;5091068;28;20266;-51
2023/04/23 00:28:33;;;;;;;12.93;9.32;;;13.70;99.90;;;;;;5090015;28;20311;-51
2023/04/23 00:31:01;;;;;;;11.93;9.65;;;13.70;99.90;;;;;;5090990;28;20911;-51
2023/04/23 00:33:29;;;;;;;11.35;9.35;;;13.60;99.90;;;;;;5091028;28;20800;-51
2023/04/23 00:35:56;;;;;;;10.60;9.50;;;13.60;99.90;;;;;;5091215;28;20311;-51
2023/04/23 00:38:25;;;;;;;11.77;9.13;;;13.60;99.90;;;;;;5090968;28;20215;-50
2023/04/23 00:40:53;;;;;;;13.40;10.50;;;13.60;99.90;;;;;;5091033;28;20220;-50
2023/04/23 00:43:22;;;;;;;11.68;10.32;;;13.60;99.90;;;;;;5091011;28;20231;-50
2023/04/23 00:45:51;;;;;;;10.68;9.57;;;13.50;99.90;;;;;;5091302;28;20828;-50
2023/04/23 00:48:19;;;;;;;9.35;8.45;;;13.50;99.90;;;;;;5091009;28;21046;-50
2023/04/23 00:50:47;;;;;;;11.13;9.15;;;13.50;99.90;;;;;;5090984;28;20208;-50
2023/04/23 00:53:15;;;;;;;11.05;9.25;;;13.50;99.90;;;;;;5090783;28;20573;-50
2023/04/23 00:55:43;;;;;;;9.98;8.70;;;13.50;99.90;;;;;;5090816;28;20235;-51
2023/04/23 00:58:11;;;;;;;10.30;9.20;;;13.50;99.90;;;;;;5091038;28;20205;-51
2023/04/23 01:00:47;;;;;;;10.32;9.30;;;13.40;99.90;;;;;;5091081;28;20207;-50
2023/04/23 01:03:17;;;;;;;11.00;9.90;;;13.40;99.90;;;;;;5090784;28;20208;-51
2023/04/23 01:05:45;;;;;;;12.45;10.73;;;13.40;99.90;;;;;;5087304;28;20604;-51
2023/04/23 01:08:17;;;;;;;11.77;9.93;;;13.40;99.90;;;;;;5090131;28;20223;-50
2023/04/23 01:10:46;;;;;;;12.43;11.13;;;13.30;99.90;;;;;;5090433;28;20216;-49
2023/04/23 01:13:14;;;;;;;11.20;10.00;;;13.30;99.90;;;;;;5081754;28;20316;-50
2023/04/23 01:15:44;;;;;;;10.10;9.10;;;13.30;99.90;;;;;;5084758;28;20377;-50
2023/04/23 01:18:12;;;;;;;10.83;9.83;;;13.40;99.90;;;;;;5090259;28;20295;-49
2023/04/23 01:20:42;;;;;;;11.05;9.88;;;13.40;99.90;;;;;;5089980;28;20295;-51
2023/04/23 01:23:11;;;;;;;12.47;11.17;;;13.40;99.90;;;;;;5089999;28;20200;-51
2023/04/23 01:25:39;;;;;;;10.97;9.80;;;13.40;99.90;;;;;;5090290;28;20231;-51
2023/04/23 01:28:07;;;;;;;11.80;10.03;;;13.30;99.90;;;;;;5089964;28;20720;-50
2023/04/23 01:30:36;;;;;;;12.57;10.93;;;13.30;99.90;;;;;;5090040;28;20212;-51
2023/04/23 01:33:05;;;;;;;12.10;10.57;;;13.30;99.90;;;;;;5089542;28;20262;-50
2023/04/23 01:35:35;;;;;;;10.90;9.80;;;13.30;99.90;;;;;;5089844;28;20228;-51
2023/04/23 01:38:04;;;;;;;11.17;9.57;;;13.30;99.90;;;;;;5089615;28;20303;-50
2023/04/23 01:40:34;;;;;;;10.70;9.50;;;13.30;99.90;;;;;;5090120;28;20954;-51
2023/04/23 01:43:02;;;;;;;8.90;7.83;;;13.30;99.90;;;;;;5089583;28;20239;-50
2023/04/23 01:45:31;;;;;;;3.20;2.80;;;13.30;99.90;;;;;;5089595;28;20768;-50
2023/04/23 01:48:00;;;;;;;3.00;2.50;;;13.20;99.90;;;;;;5089772;28;20315;-50
2023/04/23 01:50:28;;;;;;;3.13;2.67;;;13.10;99.90;;;;;;5076519;28;20691;-50
2023/04/23 01:52:56;;;;;;;3.40;3.10;;;13.00;99.90;;;;;;5089539;28;20977;-50
2023/04/23 01:55:25;;;;;;;3.50;3.20;;;13.00;99.90;;;;;;5089541;28;20228;-49
2023/04/23 01:57:54;;;;;;;3.60;3.30;;;12.90;99.90;;;;;;5089494;28;20204;-50
2023/04/23 02:00:22;;;;;;;4.37;3.97;;;13.00;99.90;;;;;;5089028;28;20311;-51
2023/04/23 02:02:52;;;;;;;4.63;4.23;;;13.00;99.90;;;;;;5089743;28;20227;-51
2023/04/23 02:05:21;;;;;;;4.23;3.93;;;13.00;99.90;;;;;;5089352;28;20273;-51
2023/04/23 02:07:50;;;;;;;4.73;4.30;;;13.00;99.90;;;;;;5089586;28;20812;-50
2023/04/23 02:10:19;;;;;;;5.03;4.23;;;13.00;99.90;;;;;;5088899;28;20218;-50
2023/04/23 02:12:48;;;;;;;4.90;4.40;;;12.90;99.90;;;;;;5084652;28;20221;-50
2023/04/23 02:15:18;;;;;;;5.43;4.40;;;13.00;99.90;;;;;;5080092;28;20238;-51
2023/04/23 02:17:49;;;;;;;4.47;4.07;;;13.00;99.90;;;;;;5089310;28;20215;-49
2023/04/23 02:20:18;;;;;;;5.30;4.80;;;13.10;99.90;;;;;;5089254;28;20240;-50
2023/04/23 02:22:47;;;;;;;4.80;4.40;;;13.00;99.90;;;;;;5088965;28;20265;-50
2023/04/23 02:25:16;;;;;;;5.60;5.00;;;12.90;99.90;;;;;;5088668;28;20228;-51
2023/04/23 02:27:45;;;;;;;5.87;5.00;;;12.80;99.90;;;;;;5098972;28;20243;-50
2023/04/23 02:30:13;;;;;;;5.40;4.90;;;12.80;99.90;;;;;;5105755;28;20780;-50
2023/04/23 02:32:42;;;;;;;5.30;4.80;;;12.70;99.90;;;;;;5096751;28;20601;-51
2023/04/23 02:35:11;;;;;;;4.70;4.30;;;12.60;99.90;;;;;;5100234;28;20763;-50
2023/04/23 02:37:39;;;;;;;4.40;4.00;;;12.70;99.90;;;;;;5108880;28;20207;-50
2023/04/23 02:40:09;;;;;;;5.00;4.50;;;12.60;99.90;;;;;;5105521;28;20722;-51
2023/04/23 02:42:37;;;;;;;4.90;4.50;;;12.60;99.90;;;;;;5105290;28;20222;-50
2023/04/23 02:45:06;;;;;;;4.80;4.40;;;12.60;99.90;;;;;;5098544;28;20310;-50
2023/04/23 02:47:34;;;;;;;4.83;4.40;;;12.50;99.90;;;;;;5103982;28;20203;-50
2023/04/23 02:50:05;;;;;;;5.27;4.73;;;12.50;99.90;;;;;;5108408;28;20208;-49
2023/04/23 02:52:33;;;;;;;6.20;4.80;;;12.50;99.90;;;;;;5108858;28;20248;-50
2023/04/23 02:55:02;;;;;;;4.70;4.30;;;12.50;99.90;;;;;;5084537;28;20314;-51
2023/04/23 02:57:30;;;;;;;4.80;4.37;;;12.50;99.90;;;;;;5087850;28;20701;-50
2023/04/23 02:59:58;;;;;;;5.17;4.67;;;12.50;99.90;;;;;;5088299;28;20211;-50
2023/04/23 03:02:26;;;;;;;5.53;4.50;;;12.50;99.90;;;;;;5089173;28;20938;-51
2023/04/23 03:04:54;;;;;;;6.60;5.03;;;12.50;99.90;;;;;;5079747;28;20220;-50
2023/04/23 03:07:24;;;;;;;4.87;4.47;;;12.50;99.90;;;;;;5088527;28;20258;-51
2023/04/23 03:09:52;;;;;;;4.90;4.40;;;12.50;99.90;;;;;;5073517;28;20204;-50
2023/04/23 03:12:20;;;;;;;5.30;4.73;;;12.50;99.90;;;;;;5085887;28;20208;-50
2023/04/23 03:14:48;;;;;;;5.43;4.90;;;12.50;99.90;;;;;;5072016;28;20306;-50
2023/04/23 03:17:16;;;;;;;5.17;4.67;;;12.50;99.90;;;;;;5087909;28;20208;-50
2023/04/23 03:19:44;;;;;;;5.40;4.70;;;12.50;99.90;;;;;;5083822;28;20224;-50
2023/04/23 03:22:12;;;;;;;5.40;4.90;;;12.50;99.90;;;;;;5069639;28;20284;-50
2023/04/23 03:24:42;;;;;;;5.67;5.07;;;12.50;99.90;;;;;;5087422;28;20299;-51
2023/04/23 03:27:10;;;;;;;5.17;4.67;;;12.40;99.90;;;;;;5088138;28;20202;-50
2023/04/23 03:29:38;;;;;;;5.27;4.77;;;12.40;99.90;;;;;;5078109;28;20205;-51
2023/04/23 03:32:06;;;;;;;5.63;4.87;;;12.30;99.90;;;;;;5072185;28;20308;-50
2023/04/23 03:34:34;;;;;;;4.93;4.53;;;12.30;99.90;;;;;;5075767;28;20311;-51
2023/04/23 03:37:02;;;;;;;6.97;5.03;;;12.30;99.90;;;;;;5079463;28;20307;-50
2023/04/23 03:39:30;;;;;;;6.57;5.60;;;12.30;99.90;;;;;;5084286;28;20201;-51
2023/04/23 03:42:00;;;;;;;5.30;4.67;;;12.30;99.90;;;;;;5088580;28;20259;-50
2023/04/23 03:44:28;;;;;;;7.13;5.60;;;12.30;99.90;;;;;;5087908;28;20228;-50
2023/04/23 03:46:56;;;;;;;6.37;5.00;;;12.30;99.90;;;;;;5088353;28;20258;-50
2023/04/23 03:49:26;;;;;;;6.30;5.70;;;12.20;99.90;;;;;;5088397;28;20291;-50
2023/04/23 03:51:54;;;;;;;6.80;5.60;;;12.20;99.90;;;;;;5088124;28;20230;-50
2023/04/23 03:54:24;;;;;;;6.17;5.50;;;12.20;99.90;;;;;;5087958;28;20649;-50
2023/04/23 03:56:52;;;;;;;5.90;5.40;;;12.20;99.90;;;;;;5087621;28;20204;-50
2023/04/23 03:59:22;;;;;;;6.70;5.57;;;12.20;99.90;;;;;;5088099;28;20204;-51
2023/04/23 04:01:50;;;;;;;5.93;5.27;;;12.20;99.90;;;;;;5089578;28;20235;-51
2023/04/23 04:04:18;;;;;;;6.40;5.73;;;12.20;99.90;;;;;;5091308;28;20894;-50
2023/04/23 04:06:47;;;;;;;6.27;5.67;;;12.20;99.90;;;;;;5091472;28;20231;-50
2023/04/23 04:09:15;;;;;;;7.83;5.97;;;12.20;99.90;;;;;;5091274;28;20299;-50
2023/04/23 04:11:44;;;;;;;6.47;5.60;;;12.20;99.90;;;;;;5091658;28;20209;-51
2023/04/23 04:14:12;;;;;;;7.00;6.30;;;12.20;99.90;;;;;;5077037;28;20800;-50
2023/04/23 04:16:41;;;;;;;6.70;6.10;;;12.20;99.90;;;;;;5091376;28;20216;-51
2023/04/23 04:19:09;;;;;;;7.20;6.50;;;12.10;99.90;;;;;;5091385;28;20283;-51
2023/04/23 04:21:37;;;;;;;8.13;7.33;;;12.20;99.90;;;;;;5090884;28;20205;-50
2023/04/23 04:24:06;;;;;;;6.50;5.90;;;12.20;99.90;;;;;;5091112;28;20283;-50
2023/04/23 04:26:34;;;;;;;7.53;6.80;;;12.30;99.90;;;;;;5091513;28;20298;-50
2023/04/23 04:29:02;;;;;;;8.00;6.30;;;12.20;99.90;;;;;;5090930;28;20283;-51
2023/04/23 04:31:30;;;;;;;8.53;6.00;;;12.20;99.90;;;;;;5091314;28;20299;-50
2023/04/23 04:33:59;;;;;;;7.77;6.40;;;12.10;99.90;;;;;;5090855;28;20224;-51
2023/04/23 04:36:28;;;;;;;7.80;6.90;;;12.20;99.90;;;;;;5090929;28;20622;-51
2023/04/23 04:38:57;;;;;;;8.30;7.47;;;12.10;99.90;;;;;;5090958;28;20211;-49
2023/04/23 04:41:26;;;;;;;9.57;8.67;;;12.20;99.90;;;;;;5090765;28;20858;-50
2023/04/23 04:43:54;;;;;;;11.40;8.30;;;12.10;99.90;;;;;;5090729;28;20682;-50
2023/04/23 04:46:22;;;;;;;8.40;7.60;;;12.00;99.90;;;;;;5090891;28;20212;-50
2023/04/23 04:48:50;;;;;;;9.07;8.10;;;12.00;99.90;;;;;;5090783;28;20216;-50
2023/04/23 04:51:20;;;;;;;8.40;7.07;;;12.00;99.90;;;;;;5090555;28;20208;-51
2023/04/23 04:53:48;;;;;;;9.33;7.87;;;12.00;99.90;;;;;;5090767;28;20744;-50
2023/04/23 04:56:16;;;;;;;9.97;7.83;;;12.10;99.90;;;;;;5090693;28;20232;-50
2023/04/23 04:58:44;;;;;;;9.63;8.50;;;12.10;99.90;;;;;;5090325;28;20211;-51
2023/04/23 05:01:12;;;;;;;9.57;7.90;;;12.10;99.90;;;;;;5090352;28;20301;-50
2023/04/23 05:03:40;;;;;;;8.90;7.93;;;12.10;99.90;;;;;;5090209;28;20212;-50
2023/04/23 05:06:08;;;;;;;10.33;8.60;;;12.10;99.90;;;;;;5090490;28;20231;-50
2023/04/23 05:08:38;;;;;;;10.83;9.10;;;12.10;99.90;;;;;;5090370;28;20232;-50
2023/04/23 05:11:06;;;;;;;12.10;9.83;;;12.00;99.90;;;;;;5089077;28;20630;-51
2023/04/23 05:13:34;;;;;;;11.33;9.20;;;11.90;99.90;;;;;;5089420;28;20215;-53
2023/04/23 05:16:02;;;;;;;9.83;8.83;;;11.90;99.90;;;;;;5089635;28;20319;-49
2023/04/23 05:18:30;;;;;;;10.50;9.30;;;11.80;99.90;;;;;;5090216;28;20682;-50
2023/04/23 05:20:58;;;;;;;9.90;9.00;;;11.70;99.90;;;;;;5076185;28;20274;-50
2023/04/23 05:23:26;;;;;;;11.33;9.93;;;11.80;99.90;;;;;;5076319;28;20291;-50
2023/04/23 05:25:57;;;;;;;10.47;9.47;;;11.80;99.90;;;;;;5090190;28;20252;-49
2023/04/23 05:28:25;;;;;;;14.13;9.60;;;11.80;99.90;;;;;;5084190;28;20205;-50
2023/04/23 05:30:53;;;;;;;11.80;9.97;;;11.80;99.90;;;;;;5082300;28;20287;-51
2023/04/23 05:33:21;;;;;;;11.80;10.63;;;11.90;99.90;;;;;;5089335;28;20283;-51
2023/04/23 05:35:49;;;;;;;12.10;10.77;;;11.90;99.90;;;;;;5087104;28;20240;-50
2023/04/23 05:38:17;;;;;;;12.67;10.90;;;12.00;99.90;;;;;;5088579;28;20238;-51
2023/04/23 05:40:45;;;;;;;12.70;11.10;;;12.00;99.90;;;;;;5087537;28;20196;-51
2023/04/23 05:43:15;;;;;;;13.17;11.43;;;12.20;99.90;;;;;;5086651;28;20750;-50
2023/04/23 05:45:43;;;;;;;15.03;13.17;;;12.30;99.90;;;;;;5080488;28;20316;-50
2023/04/23 05:48:11;;;;;;;14.70;12.87;;;12.30;99.90;;;;;;5086985;28;20208;-50
2023/04/23 05:50:39;;;;;;;15.23;13.00;;;12.30;99.90;;;;;;5084269;28;20232;-51
2023/04/23 05:53:07;;;;;;;16.53;13.57;;;12.30;99.90;;;;;;5088292;28;20299;-50
2023/04/23 05:55:35;;;;;;;15.53;13.50;;;12.30;99.90;;;;;;5084965;28;20307;-50
2023/04/23 05:58:04;;;;;;;15.53;13.80;;;12.30;99.90;;;;;;5086094;28;20306;-49
2023/04/23 06:00:34;;;;;;;19.23;16.73;;;12.40;99.90;;;;;;5086323;28;20208;-51
2023/04/23 06:03:02;;;;;;;18.53;16.10;;;12.50;99.90;;;;;;5089577;28;20204;-50
2023/04/23 06:05:30;;;;;;;17.53;15.50;;;12.50;99.90;;;;;;5082352;28;20269;-50
2023/04/23 06:07:58;;;;;;;20.93;16.27;;;12.50;99.90;;;;;;5089137;28;20262;-50
2023/04/23 06:10:26;;;;;;;19.13;15.47;;;12.60;99.90;;;;;;5089317;28;20219;-50
2023/04/23 06:12:55;;;;;;;17.07;15.27;;;12.70;99.90;;;;;;5088919;28;20212;-51
2023/04/23 06:15:25;;;;;;;21.60;16.87;;;12.70;99.90;;;;;;5089018;28;20324;-50
2023/04/23 06:17:55;;;;;;;23.53;17.63;;;12.80;99.90;;;;;;5089185;28;20208;-51
2023/04/23 06:20:23;;;;;;;17.67;15.83;;;12.70;99.90;;;;;;5077498;28;20205;-50
2023/04/23 06:22:51;;;;;;;19.77;16.63;;;12.80;99.90;;;;;;5086613;28;20235;-50
2023/04/23 06:25:19;;;;;;;21.93;17.63;;;12.70;99.90;;;;;;5088084;28;20255;-50
2023/04/23 06:27:47;;;;;;;20.33;17.03;;;12.70;99.90;;;;;;5080608;28;20304;-50
2023/04/23 06:30:15;;;;;;;20.43;17.37;;;12.70;99.90;;;;;;5081901;28;20240;-50
2023/04/23 06:32:43;;;;;;;18.40;16.03;;;12.80;99.90;;;;;;5084165;28;20670;-50
2023/04/23 06:35:13;;;;;;;20.80;17.80;;;12.90;99.90;;;;;;5104396;28;20234;-50
2023/04/23 06:37:41;;;;;;;20.17;17.07;;;12.90;99.90;;;;;;5109411;28;20203;-50
2023/04/23 06:40:10;;;;;;;21.23;16.17;;;13.10;99.90;;;;;;5109324;28;20203;-50
2023/04/23 06:42:38;;;;;;;16.97;15.13;;;13.20;99.90;;;;;;5109245;28;20231;-50
2023/04/23 06:45:07;;;;;;;16.47;14.77;;;13.20;99.90;;;;;;5109387;28;20227;-51
2023/04/23 06:47:35;;;;;;;19.03;15.47;;;13.30;99.90;;;;;;5109266;28;20235;-50
2023/04/23 06:50:04;;;;;;;14.60;13.10;;;13.40;99.90;;;;;;5109721;28;20203;-50
2023/04/23 06:52:34;;;;;;;15.53;13.93;;;13.40;99.90;;;;;;5109415;28;20235;-50
2023/04/23 06:55:02;;;;;;;14.88;12.38;;;13.60;99.90;;;;;;5103448;28;20268;-51
2023/04/23 06:57:30;;;;;;;12.57;11.27;;;14.20;99.90;;;;;;5103192;28;20213;-51
2023/04/23 06:59:59;;;;;;;11.75;10.55;;;14.90;99.90;;;;;;5103531;28;20538;-50
2023/04/23 07:02:27;;;;;;;12.52;10.95;;;15.50;99.90;;;;;;5109194;28;20208;-51
2023/04/23 07:04:55;;;;;;;11.30;10.27;;;16.10;99.90;;;;;;5109200;28;20302;-50
2023/04/23 07:07:23;;;;;;;11.45;10.35;;;15.50;99.90;;;;;;5104748;28;20208;-50
2023/04/23 07:09:52;;;;;;;10.07;9.18;;;15.10;99.90;;;;;;5106081;28;20265;-50
2023/04/23 07:12:20;;;;;;;12.32;11.15;;;14.90;99.90;;;;;;5092139;28;20291;-50
2023/04/23 07:14:48;;;;;;;11.10;10.10;;;14.60;99.90;;;;;;5083942;28;20319;-50
2023/04/23 07:17:16;;;;;;;12.93;11.63;;;14.50;99.90;;;;;;5084588;28;20327;-50
2023/04/23 07:19:44;;;;;;;12.38;10.80;;;14.40;99.90;;;;;;5085865;28;20251;-51
2023/04/23 07:22:12;;;;;;;11.73;10.60;;;14.40;99.90;;;;;;5088067;28;20287;-51
2023/04/23 07:24:41;;;;;;;13.43;12.10;;;14.40;99.90;;;;;;5081193;28;20813;-51
2023/04/23 07:27:11;;;;;;;11.88;10.52;;;14.30;99.90;;;;;;5087340;28;20237;-51
2023/04/23 07:29:39;;;;;;;12.50;11.25;;;14.30;99.90;;;;;;5085933;28;20683;-51
2023/04/23 07:32:07;;;;;;;11.38;10.18;;;14.20;99.90;;;;;;5087514;28;20236;-51
2023/04/23 07:34:36;;;;;;;11.55;10.35;;;14.10;99.90;;;;;;5087211;28;20287;-50
2023/04/23 07:37:05;;;;;;;11.55;10.35;;;14.10;99.90;;;;;;5089386;28;20231;-51
2023/04/23 07:39:33;;;;;;;11.35;10.15;;;14.20;99.90;;;;;;5091471;28;20240;-51
2023/04/23 07:42:01;;;;;;;12.38;11.07;;;14.10;99.90;;;;;;5094602;28;20208;-51
2023/04/23 07:44:31;;;;;;;12.10;10.90;;;14.20;99.90;;;;;;5092072;28;20972;-50
2023/04/23 07:46:59;;;;;;;11.68;10.57;;;14.30;99.90;;;;;;5090147;28;20236;-51
2023/04/23 07:49:27;;;;;;;13.35;11.50;;;14.30;99.90;;;;;;5090347;28;20251;-51
2023/04/23 07:51:55;;;;;;;11.90;10.68;;;14.30;99.90;;;;;;5092524;28;20299;-50
2023/04/23 07:54:23;;;;;;;12.50;11.13;;;14.50;99.90;;;;;;5093738;28;20319;-50
2023/04/23 07:56:52;;;;;;;11.73;10.52;;;14.60;99.90;;;;;;5091826;28;20232;-50
2023/04/23 07:59:20;;;;;;;12.63;11.38;;;14.70;99.90;;;;;;5095965;28;20199;-50
2023/04/23 08:01:50;;;;;;;12.55;11.30;;;14.70;99.90;;;;;;5095778;28;20651;-50
2023/04/23 08:04:18;;;;;;;12.68;10.48;;;14.70;99.90;;;;;;5094466;28;20282;-51
2023/04/23 08:06:46;;;;;;;12.02;10.90;;;14.80;99.90;;;;;;5092135;28;20230;-51
2023/04/23 08:09:14;;;;;;;12.52;11.23;;;14.60;99.90;;;;;;5092906;28;20902;-50
2023/04/23 08:11:42;;;;;;;11.75;10.55;;;14.70;99.90;;;;;;5094429;28;20265;-50
2023/04/23 08:14:11;;;;;;;11.40;10.23;;;14.80;99.90;;;;;;5092383;28;20282;-50
2023/04/23 08:16:39;;;;;;;11.18;10.07;;;14.90;99.90;;;;;;5089289;28;20235;-51
2023/04/23 08:19:09;;;;;;;11.00;9.82;;;15.50;99.90;;;;;;5091638;28;20211;-50
2023/04/23 08:21:37;;;;;;;10.98;9.95;;;15.60;99.90;;;;;;5100195;28;20215;-50
2023/04/23 08:24:06;;;;;;;10.93;9.25;;;15.70;99.90;;;;;;5090532;28;20208;-51
2023/04/23 08:26:34;;;;;;;10.48;9.48;;;15.70;99.90;;;;;;5089824;28;20238;-50
2023/04/23 08:29:04;;;;;;;9.93;9.02;;;15.60;99.90;;;;;;5090534;28;20212;-50
2023/04/23 08:31:32;;;;;;;10.48;8.95;;;15.90;99.90;;;;;;5090807;28;20208;-50
2023/04/23 08:34:00;;;;;;;9.93;8.98;;;16.10;99.90;;;;;;5090331;28;20204;-50
2023/04/23 08:36:30;;;;;;;10.13;9.00;;;16.30;99.90;;;;;;5090429;28;20266;-50
2023/04/23 08:38:59;;;;;;;9.85;8.85;;;16.20;99.90;;;;;;5090550;28;20205;-48
2023/04/23 08:41:34;;;;;;;9.57;8.68;;;16.50;99.90;;;;;;5092235;28;20261;-50
2023/04/23 08:44:13;;;;;;;9.20;8.23;;;16.70;99.90;;;;;;5096636;28;20673;-51
2023/04/23 08:46:43;;;;;;;11.00;8.73;;;16.70;99.90;;;;;;5085166;28;20938;-50
2023/04/23 08:49:15;;;;;;;10.13;9.13;;;16.80;99.90;;;;;;5088646;28;20283;-50
2023/04/23 08:51:50;;;;;;;9.57;8.63;;;16.80;99.90;;;;;;5090262;28;20265;-52
2023/04/23 08:54:25;;;;;;;9.77;8.63;;;17.10;99.90;;;;;;5089306;28;20277;-50
2023/04/23 08:56:56;;;;;;;8.52;7.75;;;17.30;99.90;;;;;;5089448;28;20853;-50
2023/04/23 08:59:25;;;;;;;8.98;8.10;;;17.30;99.90;;;;;;5089616;28;20208;-50
2023/04/23 09:01:54;;;;;;;7.68;6.97;;;17.40;99.90;;;;;;5090182;28;20213;-51
2023/04/23 09:04:24;;;;;;;7.70;7.00;;;17.50;99.90;;;;;;5089401;28;20220;-51
2023/04/23 09:06:55;;;;;;;8.63;7.65;;;17.50;99.90;;;;;;5084963;28;20212;-51
2023/04/23 09:09:25;;;;;;;7.82;7.03;;;17.30;99.90;;;;;;5088311;28;20295;-51
2023/04/23 09:11:53;;;;;;;8.38;7.00;;;16.70;99.90;;;;;;5088244;28;20243;-51
2023/04/23 09:14:23;;;;;;;7.30;6.60;;;16.40;99.90;;;;;;5088019;28;20282;-51
2023/04/23 09:16:52;;;;;;;7.75;6.95;;;16.50;99.90;;;;;;5087272;28;20458;-50
2023/04/23 09:19:20;;;;;;;7.43;6.60;;;16.60;99.90;;;;;;5091009;28;20204;-51
2023/04/23 09:21:48;;;;;;;8.18;7.35;;;16.90;99.90;;;;;;5090625;28;20205;-50
2023/04/23 09:24:18;;;;;;;8.68;7.78;;;17.20;99.90;;;;;;5090772;28;20315;-50
2023/04/23 09:26:47;;;;;;;8.27;7.53;;;17.30;99.90;;;;;;5091006;28;20758;-50
2023/04/23 09:29:17;;;;;;;7.20;6.28;;;17.60;99.90;;;;;;5082367;28;20613;-51
2023/04/23 09:31:48;;;;;;;7.20;6.60;;;17.90;99.90;;;;;;5086027;28;20212;-51
2023/04/23 09:34:17;;;;;;;8.00;6.53;;;17.90;99.90;;;;;;5086466;28;20224;-51
2023/04/23 09:36:46;;;;;;;8.95;6.75;;;17.90;99.90;;;;;;5087769;28;20779;-51
2023/04/23 09:39:15;;;;;;;8.05;6.20;;;17.70;99.90;;;;;;5088198;28;20313;-50
2023/04/23 09:41:45;;;;;;;6.85;6.15;;;17.80;99.90;;;;;;5097804;28;20298;-50
2023/04/23 09:44:18;;;;;;;8.10;6.20;;;18.10;99.90;;;;;;5094699;28;20228;-51
2023/04/23 09:46:46;;;;;;;8.20;5.97;;;18.10;99.90;;;;;;5087913;28;20316;-52
2023/04/23 09:49:15;;;;;;;6.63;5.78;;;17.80;99.90;;;;;;5088424;28;20597;-49
2023/04/23 09:51:45;;;;;;;7.45;6.28;;;17.60;99.90;;;;;;5089805;28;20236;-51
2023/04/23 09:54:15;;;;;;;6.40;5.65;;;17.50;99.90;;;;;;5089299;28;20240;-50
2023/04/23 09:56:49;;;;;;;6.20;5.60;;;17.70;99.90;;;;;;5088207;28;20643;-50
2023/04/23 09:59:21;;;;;;;8.02;5.43;;;17.90;99.90;;;;;;5082865;28;20291;-50
2023/04/23 10:02:04;;;;;;;6.43;5.40;;;18.30;99.90;;;;;;5088166;28;20379;-50
2023/04/23 10:04:34;;;;;;;6.00;4.82;;;18.50;99.90;;;;;;5109197;27;20331;-51
2023/04/23 10:07:06;;;;;;;5.45;4.80;;;18.50;99.90;;;;;;5110691;27;20196;-50
2023/04/23 10:09:41;;;;;;;5.90;4.85;;;18.20;99.90;;;;;;5118131;27;20643;-51
2023/04/23 10:12:12;;;;;;;5.80;5.00;;;17.80;99.90;;;;;;5120324;27;20582;-50
2023/04/23 10:15:00;;;;;;;5.82;4.70;;;17.70;99.90;;;;;;5106110;27;20724;-51
2023/04/23 10:17:29;;;;;;;6.20;5.60;;;17.70;99.90;;;;;;5117363;27;20608;-50
2023/04/23 10:20:00;;;;;;;6.18;5.32;;;17.70;99.90;;;;;;5121099;27;20286;-49
2023/04/23 10:22:29;;;;;;;7.25;5.05;;;18.20;99.90;;;;;;5122544;27;20210;-49
2023/04/23 10:25:00;;;;;;;7.28;5.80;;;18.30;99.90;;;;;;5115509;27;20226;-50
2023/04/23 10:27:30;;;;;;;5.72;5.22;;;18.10;99.90;;;;;;5114506;27;20230;-51
2023/04/23 10:30:20;;;;;;;7.22;5.63;;;18.00;99.90;;;;;;5122554;27;20665;-50
2023/04/23 10:32:49;;;;;;;6.18;5.60;;;17.90;99.90;;;;;;5110659;27;20239;-48
2023/04/23 10:35:17;;;;;;;6.65;5.68;;;17.90;99.90;;;;;;5121698;27;20227;-49
2023/04/23 10:37:47;;;;;;;5.63;4.88;;;18.00;99.90;;;;;;5120105;27;20280;-50
2023/04/23 10:40:20;;;;;;;5.80;5.20;;;18.00;99.90;;;;;;5118411;27;20242;-50
2023/04/23 10:42:51;;;;;;;7.95;5.20;;;17.80;99.90;;;;;;5104063;27;20207;-50
2023/04/23 10:45:20;;;;;;;6.15;5.18;;;17.60;99.90;;;;;;5117779;27;20314;-50
2023/04/23 10:47:54;;;;;;;5.70;4.80;;;17.70;99.90;;;;;;5130204;27;20263;-50
2023/04/23 10:50:24;;;;;;;7.20;5.72;;;17.50;99.90;;;;;;5124706;28;20264;-50
2023/04/23 10:52:55;;;;;;;6.03;5.40;;;17.40;99.90;;;;;;5129359;28;20198;-50
2023/04/23 10:55:25;;;;;;;6.05;5.45;;;17.10;99.90;;;;;;5120895;28;20319;-50
2023/04/23 10:58:02;;;;;;;5.75;4.85;;;16.80;99.90;;;;;;5105907;28;20226;-50
2023/04/23 11:00:44;;;;;;;7.65;6.50;;;16.80;99.90;;;;;;5120181;28;20205;-50
2023/04/23 11:03:37;;;;;;;8.25;6.78;;;16.60;99.90;;;;;;5092867;28;20208;-50
2023/04/23 11:06:14;;;;;;;7.15;6.45;;;16.80;99.90;;;;;;5091856;28;20301;-50
2023/04/23 11:08:52;;;;;;;9.52;7.25;;;17.10;99.90;;;;;;5102988;28;20219;-50
2023/04/23 11:11:38;;;;;;;7.35;6.63;;;17.40;99.90;;;;;;5089969;28;20235;-49
2023/04/23 11:14:14;;;;;;;11.32;6.10;;;17.50;99.90;;;;;;5112810;28;20199;-50
2023/04/23 11:16:42;;;;;;;5.53;4.88;;;17.50;99.90;;;;;;5113039;28;20223;-50
2023/04/23 11:19:12;;;;;;;5.78;4.68;;;17.60;99.90;;;;;;5104179;28;20227;-50
2023/04/23 11:21:59;;;;;;;5.40;3.95;;;17.50;99.90;;;;;;5107574;28;21027;-51
2023/04/23 11:24:29;;;;;;;4.80;3.80;;;17.40;99.90;;;;;;5112833;28;20230;-50
2023/04/23 11:26:58;;;;;;;3.60;3.30;;;17.40;99.90;;;;;;5112588;28;20269;-50
2023/04/23 11:29:28;;;;;;;6.25;3.53;;;17.40;99.90;;;;;;5112688;28;20282;-50
2023/04/23 11:31:56;;;;;;;5.07;3.38;;;17.40;99.90;;;;;;5112902;28;20283;-49
2023/04/23 11:34:30;;;;;;;8.57;3.30;;;17.50;99.90;;;;;;5112268;28;20227;-50
2023/04/23 11:37:00;;;;;;;4.70;3.75;;;17.90;99.90;;;;;;5108003;28;20223;-50
2023/04/23 11:39:28;;;;;;;6.60;4.47;;;18.10;99.90;;;;;;5105575;28;20277;-50
2023/04/23 11:41:58;;;;;;;6.72;4.68;;;18.30;99.90;;;;;;5112858;28;20203;-50
2023/04/23 11:44:27;;;;;;;7.93;4.95;;;18.10;99.90;;;;;;5112388;28;20227;-50
2023/04/23 11:46:55;;;;;;;5.38;4.50;;;18.10;99.90;;;;;;5112308;28;20290;-50
2023/04/23 11:49:25;;;;;;;6.68;4.68;;;17.90;99.90;;;;;;5112346;28;20212;-50
2023/04/23 11:51:53;;;;;;;6.50;4.60;;;18.00;99.90;;;;;;5112094;28;20290;-50
2023/04/23 11:54:27;;;;;;;8.88;6.35;;;18.00;99.90;;;;;;5112359;28;20250;-51
2023/04/23 11:56:56;;;;;;;5.75;5.00;;;18.30;99.90;;;;;;5112260;28;20593;-50
2023/04/23 11:59:25;;;;;;;10.32;7.43;;;18.40;99.90;;;;;;5111652;27;20231;-50
2023/04/23 12:01:56;;;;;;;10.35;8.00;;;18.50;99.90;;;;;;5112088;28;20322;-50
2023/04/23 12:04:25;;;;;;;8.85;7.07;;;18.50;99.90;;;;;;5111522;28;20284;-50
2023/04/23 12:06:55;;;;;;;6.53;5.13;;;18.40;99.90;;;;;;5112472;28;20208;-50
2023/04/23 12:09:25;;;;;;;6.88;5.13;;;18.40;99.90;;;;;;5110940;28;20235;-50
2023/04/23 12:11:53;;;;;;;6.55;5.80;;;18.50;99.90;;;;;;5098407;28;20234;-50
2023/04/23 12:14:28;;;;;;;6.43;5.85;;;18.40;99.90;;;;;;5111607;28;20310;-50
2023/04/23 12:16:58;;;;;;;6.63;5.00;;;18.40;99.90;;;;;;5111735;28;20211;-50
2023/04/23 12:19:28;;;;;;;4.63;4.20;;;18.30;99.90;;;;;;5111884;28;20227;-50
2023/04/23 12:21:58;;;;;;;5.18;4.43;;;18.20;99.90;;;;;;5111266;28;20277;-50
2023/04/23 12:24:27;;;;;;;5.00;4.50;;;17.90;99.90;;;;;;5111616;28;20232;-50
2023/04/23 12:26:57;;;;;;;7.53;5.03;;;17.80;99.90;;;;;;5111784;28;20238;-50
2023/04/23 12:29:26;;;;;;;7.80;5.55;;;17.80;99.90;;;;;;5110762;28;20200;-50
2023/04/23 12:32:00;;;;;;;7.18;5.10;;;17.80;99.90;;;;;;5111525;28;20820;-51
2023/04/23 12:34:28;;;;;;;5.95;5.35;;;17.90;99.90;;;;;;5110939;28;20227;-49
2023/04/23 12:36:56;;;;;;;10.95;7.20;;;18.00;99.90;;;;;;5103453;27;20231;-50
2023/04/23 12:39:28;;;;;;;11.77;8.88;;;18.20;99.90;;;;;;5091415;28;20302;-51
2023/04/23 12:42:01;;;;;;;10.32;7.65;;;18.30;99.90;;;;;;5114039;27;20206;-51
2023/04/23 12:44:30;;;;;;;7.80;6.35;;;18.30;99.90;;;;;;5111080;27;20227;-50
2023/04/23 12:47:02;;;;;;;5.60;4.93;;;18.30;99.90;;;;;;5114479;27;20242;-50
2023/04/23 12:49:31;;;;;;;10.00;5.45;;;18.20;99.90;;;;;;5110202;28;20239;-50
2023/04/23 12:52:00;;;;;;;6.07;5.18;;;18.30;99.90;;;;;;5111478;28;20238;-50